Saturday, August 18, 2018, 2:51 AM GMT
Back to Local

CYFC, Fredericton, N. B.

Location: , , Canada Lat: 45.867
Local Time: 2:51 AM GMT ( 2:51 GMT) Lon: -66.533
Time Zone: GMT Elev: 55 ft

Show me the last for .
Show Decoded

2018-08-18 02:00 METAR CYFC 180200Z AUTO 18008KT 9SM FEW046 OVC150 17/14 A2997 RMK SLP152 DENSITY
                 ALT 200FT =
2018-08-18 01:00 METAR CYFC 180100Z AUTO 18009KT 9SM FEW180 BKN220 17/13 A2998 RMK SLP156 DENSITY
                 ALT 200FT =
2018-08-18 00:00 METAR CYFC 180000Z AUTO 18008KT 9SM BKN220 18/13 A2998 RMK SLP153 DENSITY ALT
                 400FT =
2018-08-17 23:00 METAR CYFC 172300Z AUTO 19009KT 9SM BKN047 21/16 A2998 RMK SLP153 DENSITY ALT
                 600FT =
2018-08-17 22:00 METAR CYFC 172200Z AUTO 18005KT 9SM BKN047 23/16 A2997 RMK SLP152 DENSITY ALT
                 900FT =
2018-08-17 21:00 METAR CYFC 172100Z AUTO 21007KT 150V220 9SM SCT047 24/14 A2998 RMK SLP156
                 DENSITY ALT 1000FT =
2018-08-17 20:00 METAR CYFC 172000Z AUTO 20009KT 180V270 9SM BKN047 24/14 A3000 RMK SLP162
                 DENSITY ALT 900FT =
2018-08-17 19:00 METAR CYFC 171900Z AUTO 23008KT 210V270 9SM BKN049 24/14 A3002 RMK SLP168
                 DENSITY ALT 900FT =
2018-08-17 18:00 METAR CYFC 171800Z AUTO 24005KT 220V280 9SM BKN047 23/14 A3004 RMK SLP173
                 DENSITY ALT 800FT =
2018-08-17 17:00 METAR CYFC 171700Z AUTO 29005KT 200V310 9SM BKN041 BKN049 22/14 A3005 RMK SLP178
                 DENSITY ALT 700FT =
2018-08-17 16:00 METAR CYFC 171600Z AUTO 20006KT 160V230 9SM FEW028 BKN041 22/15 A3007 RMK SLP183
                 DENSITY ALT 600FT =
2018-08-17 15:00 METAR CYFC 171500Z AUTO VRB02KT 9SM FEW016 SCT022 19/15 A3009 RMK SLP192 DENSITY
                 ALT 300FT =
2018-08-17 14:43 METAR CYFC 171443Z AUTO 16003KT 150V240 9SM SCT016 SCT020 19/15 A3010 RMK SLP195
                 DENSITY ALT 300FT =
2018-08-17 14:32 METAR CYFC 171432Z AUTO 18003KT 130V290 9SM SCT014 BKN019 19/15 A3011 RMK SLP197
                 DENSITY ALT 200FT =
2018-08-17 14:23 METAR CYFC 171423Z AUTO 25004KT 210V290 9SM SCT012 18/14 A3011 RMK SLP198
                 DENSITY ALT 100FT =
2018-08-17 14:06 METAR CYFC 171406Z AUTO 20003KT 140V260 9SM BKN010 18/15 A3012 RMK SLP201
                 DENSITY ALT 100FT =
2018-08-17 14:00 METAR CYFC 171400Z AUTO 20004KT 120V250 9SM OVC008 17/15 A3012 RMK SLP202
                 DENSITY ALT 100FT =
2018-08-17 13:18 METAR CYFC 171318Z AUTO 23004KT 190V250 9SM OVC006 15/15 A3013 RMK SLP205 =
2018-08-17 13:00 METAR CYFC 171300Z AUTO 24004KT 210V270 9SM OVC004 15/14 A3013 RMK SLP206 =
2018-08-17 12:52 METAR CYFC 171252Z AUTO 24004KT 200V270 9SM OVC004 15/14 A3014 RMK SLP207 =
2018-08-17 12:49 METAR CYFC 171249Z AUTO 24003KT 200V270 6SM BR OVC002 15/15 A3013 RMK SLP206 =
2018-08-17 12:46 METAR CYFC 171246Z AUTO 23003KT 170V270 3SM BR OVC002 15/15 A3013 RMK SLP205 =
2018-08-17 12:34 METAR CYFC 171234Z AUTO 22003KT 190V270 2SM BR OVC002 14/14 A3013 RMK VIS VRB
                 5/8-3 SLP206 =
2018-08-17 12:30 METAR CYFC 171230Z AUTO 24004KT 3/4SM R09/P6000FT/D BR OVC002 14/14 A3013 RMK
                 VIS VRB 3/8-3 SLP206 =
2018-08-17 12:00 METAR CYFC 171200Z AUTO 20003KT 150V230 3/8SM R09/2400FT/N FG OVC002 14/14 A3013
                 RMK SLP206 =
2018-08-17 11:49 METAR CYFC 171149Z AUTO VRB03KT 3/8SM R09/2800FT/N FG OVC002 14/14 A3013 RMK
                 SLP206 =
2018-08-17 11:44 METAR CYFC 171144Z AUTO VRB02KT 3/8SM R09/2000FT/N FG VV003 14/14 A3013 RMK
                 SLP205 =
2018-08-17 11:06 METAR CYFC 171106Z AUTO 19002KT 1/8SM R09/1400FT/N FG VV002 13/13 A3012 RMK
                 SLP203 =
2018-08-17 11:00 METAR CYFC 171100Z AUTO 20002KT 1/8SM R09/1600FT/N FG VV003 13/13 A3012 RMK
                 SLP202 =
2018-08-17 10:30 METAR CYFC 171030Z AUTO 20002KT 0SM R09/1100FT/N FG VV003 12/12 A3011 RMK SLP200
                 =
2018-08-17 10:00 METAR CYFC 171000Z AUTO 20003KT 1/2SM R09/1100FT/N FG OVC002 12/12 A3011 RMK
                 SLP199 =
2018-08-17 09:44 METAR CYFC 170944Z AUTO 19003KT 0SM R09/0900FT/N FG OVC002 11/11 A3011 RMK
                 SLP197 =
2018-08-17 09:15 METAR CYFC 170915Z AUTO 23002KT 1/8SM R09/1200V1800FT/ FG VV003 11/11 A3010 RMK
                 SLP195
2018-08-17 09:14 METAR CYFC 170914Z AUTO 24002KT 1/8SM R09/1200V1800FT/ FG VV002 11/11 A3010 RMK
                 SLP195 =
2018-08-17 09:13 METAR CYFC 170913Z AUTO 23002KT 1/4SM R09/1600FT/N FG VV003 11/11 A3010 RMK
                 SLP195 =
2018-08-17 09:04 METAR CYFC 170904Z AUTO 22002KT 1/2SM R09/3000FT/N FG VV002 11/11 A3010 RMK
                 SLP196 =
2018-08-17 09:02 METAR CYFC 170902Z AUTO 21002KT 5/8SM R09/2600FT/U BR OVC003 11/11 A3010 RMK VIS
                 VRB 3/8-2 1/2 SLP196 =
2018-08-17 09:00 METAR CYFC 170900Z AUTO 20002KT 3/4SM R09/2600FT/N BR OVC003 11/11 A3010 RMK VIS
                 VRB 1/2-2 1/2 SLP196 =
2018-08-17 08:53 METAR CYFC 170853Z AUTO 20002KT 3/4SM R09/2000FT/N BR OVC003 11/11 A3010 RMK
                 SLP196 =
2018-08-17 08:49 METAR CYFC 170849Z AUTO 18002KT 5/8SM R09/2400FT/N BR OVC003 11/11 A3010 RMK
                 SLP195 =
2018-08-17 08:43 METAR CYFC 170843Z AUTO 00000KT 1 3/4SM R09/2800V5500FT/ BR OVC003 11/11 A3010
                 RMK VIS VRB 1/2-3 SLP195 =
2018-08-17 08:42 METAR CYFC 170842Z AUTO 00000KT 2 1/4SM R09/2600V5500FT/ BR OVC003 11/11 A3010
                 RMK VIS VRB 3/4-3 SLP195 =
2018-08-17 08:39 METAR CYFC 170839Z AUTO 00000KT 4SM R09/2600V4500FT/ BR OVC003 11/11 A3010 RMK
                 SLP195 =
2018-08-17 08:37 METAR CYFC 170837Z AUTO 00000KT 6SM R09/3000FT/N BR OVC003 11/11 A3010 RMK
                 SLP195 =
2018-08-17 08:34 METAR CYFC 170834Z AUTO 00000KT 3SM R09/2800FT/N BR OVC003 11/11 A3010 RMK
                 SLP195 =
2018-08-17 08:27 METAR CYFC 170827Z AUTO 00000KT 2 1/2SM R09/2800FT/N BR OVC003 11/11 A3010 RMK
                 VIS VRB 3/4-3 SLP195 =
2018-08-17 08:24 METAR CYFC 170824Z AUTO 00000KT 5SM R09/3000FT/N BR OVC003 11/11 A3010 RMK
                 SLP193 =
2018-08-17 08:20 METAR CYFC 170820Z AUTO 00000KT 6SM R09/3000FT/N BR OVC003 11/11 A3010 RMK
                 SLP195 =
2018-08-17 08:18 METAR CYFC 170818Z AUTO 23002KT 3SM R09/3000FT/U BR OVC003 11/11 A3010 RMK
                 SLP195 =
2018-08-17 08:16 METAR CYFC 170816Z AUTO 22002KT 2SM R09/3000FT/N BR OVC003 11/11 A3010 RMK
                 SLP195 =
2018-08-17 08:10 METAR CYFC 170810Z AUTO 23002KT 3/4SM R09/2600VP6000FT/ BR OVC003 11/11 A3010
                 RMK SLP195 =
2018-08-17 08:08 METAR CYFC 170808Z AUTO 23002KT 5/8SM R09/3000VP6000FT/ BR OVC003 11/11 A3010
                 RMK SLP193 =
2018-08-17 08:00 METAR CYFC 170800Z AUTO 24002KT 1/2SM R09/3500VP6000FT/ FG OVC001 10/10 A3010
                 RMK SLP194 =
2018-08-17 07:51 METAR CYFC 170751Z AUTO VRB02KT 5/8SM R09/3000FT/N BR BKN001 10/10 A3009 RMK
                 SLP193 =
2018-08-17 07:37 METAR CYFC 170737Z AUTO 26002KT 3/4SM R09/1100FT/N BR BKN001 11/11 A3009 RMK VIS
                 VRB 3/8-3 SLP191 =
2018-08-17 07:29 METAR CYFC 170729Z AUTO 24002KT 1SM R09/1800FT/N BR SCT001 11/11 A3009 RMK
                 SLP191 =
2018-08-17 07:19 METAR CYFC 170719Z AUTO 00000KT 3/4SM R09/1800V2800FT/ BR BKN001 12/12 A3009 RMK
                 VIS VRB 3/8-3 SLP190 =
2018-08-17 07:16 METAR CYFC 170716Z AUTO 00000KT 1/2SM R09/3500VP6000FT/ FG VV001 12/12 A3009 RMK
                 SLP190 =
2018-08-17 07:08 METAR CYFC 170708Z AUTO VRB02KT 1 3/4SM BR BKN002 12/12 A3009 RMK SLP190 =
2018-08-17 07:01 METAR CYFC 170701Z AUTO 00000KT 7SM BKN002 12/12 A3009 RMK SLP190 =
2018-08-17 07:00 METAR CYFC 170700Z AUTO 00000KT 7SM SCT002 12/12 A3009 RMK SLP190 =
2018-08-17 06:49 METAR CYFC 170649Z AUTO 00000KT 6SM BR CLR 12/11 A3008 RMK SLP188 =
2018-08-17 06:39 METAR CYFC 170639Z AUTO 00000KT 5SM BR CLR 12/11 A3009 RMK SLP190 =
2018-08-17 06:00 METAR CYFC 170600Z AUTO 00000KT 9SM CLR 12/12 A3009 RMK SLP190 =
2018-08-17 05:41 METAR CYFC 170541Z AUTO 33002KT 9SM SCT013 13/12 A3008 RMK SLP188 =
2018-08-17 05:00 METAR CYFC 170500Z AUTO 00000KT 9SM OVC011 12/12 A3007 RMK SLP186 =
2018-08-17 04:35 METAR CYFC 170435Z AUTO 00000KT 9SM BKN011 13/12 A3007 RMK SLP186 =
2018-08-17 04:00 METAR CYFC 170400Z AUTO VRB02KT 9SM CLR 13/13 A3007 RMK SLP183 =
2018-08-17 03:00 METAR CYFC 170300Z AUTO 00000KT 9SM CLR 14/14 A3006 RMK SLP181 =

Support USWX by starting your Amazon purchase here.